sensor_id;sensor_type;location;lat;lon;timestamp;temperature;humidity
52209;DHT22;38507;53.132;6.394;2023-04-25T00:00:25;6.30;99.90
52209;DHT22;38507;53.132;6.394;2023-04-25T00:02:51;6.30;99.90
52209;DHT22;38507;53.132;6.394;2023-04-25T00:05:17;6.50;99.90
52209;DHT22;38507;53.132;6.394;2023-04-25T00:07:42;6.30;99.90
52209;DHT22;38507;53.132;6.394;2023-04-25T00:10:09;6.30;99.90
52209;DHT22;38507;53.132;6.394;2023-04-25T00:12:36;6.30;99.90
52209;DHT22;38507;53.132;6.394;2023-04-25T00:15:03;6.30;99.90
52209;DHT22;38507;53.132;6.394;2023-04-25T00:17:29;6.30;99.90
52209;DHT22;38507;53.132;6.394;2023-04-25T00:19:55;6.30;99.90
52209;DHT22;38507;53.132;6.394;2023-04-25T00:22:21;6.30;99.90
52209;DHT22;38507;53.132;6.394;2023-04-25T00:24:47;6.30;99.90
52209;DHT22;38507;53.132;6.394;2023-04-25T00:27:13;6.30;99.90
52209;DHT22;38507;53.132;6.394;2023-04-25T00:29:39;6.30;99.90
52209;DHT22;38507;53.132;6.394;2023-04-25T00:32:05;6.30;99.90
52209;DHT22;38507;53.132;6.394;2023-04-25T00:34:30;6.30;99.90
52209;DHT22;38507;53.132;6.394;2023-04-25T00:36:56;6.20;99.90
52209;DHT22;38507;53.132;6.394;2023-04-25T00:39:22;6.20;99.90
52209;DHT22;38507;53.132;6.394;2023-04-25T00:41:48;6.20;99.90
52209;DHT22;38507;53.132;6.394;2023-04-25T00:44:15;6.10;99.90
52209;DHT22;38507;53.132;6.394;2023-04-25T00:46:42;6.20;99.90
52209;DHT22;38507;53.132;6.394;2023-04-25T00:49:08;6.10;99.90
52209;DHT22;38507;53.132;6.394;2023-04-25T00:51:34;6.10;99.90
52209;DHT22;38507;53.132;6.394;2023-04-25T00:54:01;6.00;99.90
52209;DHT22;38507;53.132;6.394;2023-04-25T00:56:27;6.10;99.90
52209;DHT22;38507;53.132;6.394;2023-04-25T00:58:56;6.00;99.90
52209;DHT22;38507;53.132;6.394;2023-04-25T01:01:22;6.00;99.90
52209;DHT22;38507;53.132;6.394;2023-04-25T01:03:49;5.90;99.90
52209;DHT22;38507;53.132;6.394;2023-04-25T01:06:16;5.90;99.90
52209;DHT22;38507;53.132;6.394;2023-04-25T01:08:42;5.90;99.90
52209;DHT22;38507;53.132;6.394;2023-04-25T01:11:08;5.90;99.90
52209;DHT22;38507;53.132;6.394;2023-04-25T01:13:34;5.80;99.90
52209;DHT22;38507;53.132;6.394;2023-04-25T01:16:01;5.80;99.90
52209;DHT22;38507;53.132;6.394;2023-04-25T01:18:26;5.80;99.90
52209;DHT22;38507;53.132;6.394;2023-04-25T01:20:53;5.80;99.90
52209;DHT22;38507;53.132;6.394;2023-04-25T01:23:20;5.80;99.90
52209;DHT22;38507;53.132;6.394;2023-04-25T01:25:47;5.80;99.90
52209;DHT22;38507;53.132;6.394;2023-04-25T01:28:13;5.70;99.90
52209;DHT22;38507;53.132;6.394;2023-04-25T01:30:39;5.70;99.90
52209;DHT22;38507;53.132;6.394;2023-04-25T01:33:05;5.70;99.90
52209;DHT22;38507;53.132;6.394;2023-04-25T01:35:31;5.70;99.90
52209;DHT22;38507;53.132;6.394;2023-04-25T01:37:57;5.70;99.90
52209;DHT22;38507;53.132;6.394;2023-04-25T01:40:24;5.70;99.90
52209;DHT22;38507;53.132;6.394;2023-04-25T01:42:50;5.70;99.90
52209;DHT22;38507;53.132;6.394;2023-04-25T01:45:16;5.70;99.90
52209;DHT22;38507;53.132;6.394;2023-04-25T01:47:42;5.60;99.90
52209;DHT22;38507;53.132;6.394;2023-04-25T01:50:09;5.70;99.90
52209;DHT22;38507;53.132;6.394;2023-04-25T01:52:36;5.60;99.90
52209;DHT22;38507;53.132;6.394;2023-04-25T01:55:02;5.60;99.90
52209;DHT22;38507;53.132;6.394;2023-04-25T01:57:28;5.60;99.90
52209;DHT22;38507;53.132;6.394;2023-04-25T01:59:59;5.60;99.90
52209;DHT22;38507;53.132;6.394;2023-04-25T02:02:24;5.60;99.90
52209;DHT22;38507;53.132;6.394;2023-04-25T02:04:51;5.90;99.90
52209;DHT22;38507;53.132;6.394;2023-04-25T02:07:17;5.60;99.90
52209;DHT22;38507;53.132;6.394;2023-04-25T02:09:43;5.60;99.90
52209;DHT22;38507;53.132;6.394;2023-04-25T02:12:10;5.60;99.90
52209;DHT22;38507;53.132;6.394;2023-04-25T02:14:36;5.60;99.90
52209;DHT22;38507;53.132;6.394;2023-04-25T02:17:01;5.60;99.90
52209;DHT22;38507;53.132;6.394;2023-04-25T02:19:27;5.60;99.90
52209;DHT22;38507;53.132;6.394;2023-04-25T02:21:53;5.60;99.90
52209;DHT22;38507;53.132;6.394;2023-04-25T02:24:18;5.60;99.90
52209;DHT22;38507;53.132;6.394;2023-04-25T02:26:44;5.50;99.90
52209;DHT22;38507;53.132;6.394;2023-04-25T02:29:12;5.50;99.90
52209;DHT22;38507;53.132;6.394;2023-04-25T02:31:38;5.60;99.90
52209;DHT22;38507;53.132;6.394;2023-04-25T02:34:04;6.00;99.90
52209;DHT22;38507;53.132;6.394;2023-04-25T02:36:30;5.50;99.90
52209;DHT22;38507;53.132;6.394;2023-04-25T02:38:57;5.60;99.90
52209;DHT22;38507;53.132;6.394;2023-04-25T02:41:23;5.50;99.90
52209;DHT22;38507;53.132;6.394;2023-04-25T02:43:48;5.60;99.90
52209;DHT22;38507;53.132;6.394;2023-04-25T02:46:14;5.60;99.90
52209;DHT22;38507;53.132;6.394;2023-04-25T02:48:40;5.50;99.90
52209;DHT22;38507;53.132;6.394;2023-04-25T02:51:05;5.50;99.90
52209;DHT22;38507;53.132;6.394;2023-04-25T02:53:31;5.50;99.90
52209;DHT22;38507;53.132;6.394;2023-04-25T02:55:57;5.50;99.90
52209;DHT22;38507;53.132;6.394;2023-04-25T02:58:24;5.50;99.90
52209;DHT22;38507;53.132;6.394;2023-04-25T03:00:50;5.50;99.90
52209;DHT22;38507;53.132;6.394;2023-04-25T03:03:16;5.50;99.90
52209;DHT22;38507;53.132;6.394;2023-04-25T03:05:48;5.50;99.90
52209;DHT22;38507;53.132;6.394;2023-04-25T03:08:15;5.50;99.90
52209;DHT22;38507;53.132;6.394;2023-04-25T03:10:41;5.50;99.90
52209;DHT22;38507;53.132;6.394;2023-04-25T03:13:07;5.50;99.90
52209;DHT22;38507;53.132;6.394;2023-04-25T03:15:33;5.50;99.90
52209;DHT22;38507;53.132;6.394;2023-04-25T03:17:59;5.50;99.90
52209;DHT22;38507;53.132;6.394;2023-04-25T03:20:24;5.40;99.90
52209;DHT22;38507;53.132;6.394;2023-04-25T03:22:50;5.40;99.90
52209;DHT22;38507;53.132;6.394;2023-04-25T03:25:15;5.40;99.90
52209;DHT22;38507;53.132;6.394;2023-04-25T03:27:41;5.40;99.90
52209;DHT22;38507;53.132;6.394;2023-04-25T03:30:07;5.30;99.90
52209;DHT22;38507;53.132;6.394;2023-04-25T03:32:34;5.30;99.90
52209;DHT22;38507;53.132;6.394;2023-04-25T03:35:00;5.60;99.90
52209;DHT22;38507;53.132;6.394;2023-04-25T03:37:26;5.30;99.90
52209;DHT22;38507;53.132;6.394;2023-04-25T03:39:51;5.30;99.90
52209;DHT22;38507;53.132;6.394;2023-04-25T03:42:17;5.90;99.90
52209;DHT22;38507;53.132;6.394;2023-04-25T03:44:43;5.20;99.90
52209;DHT22;38507;53.132;6.394;2023-04-25T03:47:09;5.20;99.90
52209;DHT22;38507;53.132;6.394;2023-04-25T03:49:35;5.20;99.90
52209;DHT22;38507;53.132;6.394;2023-04-25T03:52:01;5.30;99.90
52209;DHT22;38507;53.132;6.394;2023-04-25T03:54:27;5.10;99.90
52209;DHT22;38507;53.132;6.394;2023-04-25T03:56:53;5.10;99.90
52209;DHT22;38507;53.132;6.394;2023-04-25T03:59:18;5.00;99.90
52209;DHT22;38507;53.132;6.394;2023-04-25T04:01:44;5.00;99.90
52209;DHT22;38507;53.132;6.394;2023-04-25T04:04:10;4.90;99.90
52209;DHT22;38507;53.132;6.394;2023-04-25T04:06:35;4.90;99.90
52209;DHT22;38507;53.132;6.394;2023-04-25T04:09:02;4.90;99.90
52209;DHT22;38507;53.132;6.394;2023-04-25T04:11:28;5.10;99.90
52209;DHT22;38507;53.132;6.394;2023-04-25T04:13:53;5.10;99.90
52209;DHT22;38507;53.132;6.394;2023-04-25T04:16:19;4.90;99.90
52209;DHT22;38507;53.132;6.394;2023-04-25T04:18:45;4.90;99.90
52209;DHT22;38507;53.132;6.394;2023-04-25T04:21:11;5.00;99.90
52209;DHT22;38507;53.132;6.394;2023-04-25T04:23:37;4.90;99.90
52209;DHT22;38507;53.132;6.394;2023-04-25T04:26:03;4.80;99.90
52209;DHT22;38507;53.132;6.394;2023-04-25T04:28:28;4.80;99.90
52209;DHT22;38507;53.132;6.394;2023-04-25T04:30:55;4.80;99.90
52209;DHT22;38507;53.132;6.394;2023-04-25T04:33:20;4.70;99.90
52209;DHT22;38507;53.132;6.394;2023-04-25T04:35:46;4.70;99.90
52209;DHT22;38507;53.132;6.394;2023-04-25T04:38:13;4.60;99.90
52209;DHT22;38507;53.132;6.394;2023-04-25T04:40:41;4.60;99.90
52209;DHT22;38507;53.132;6.394;2023-04-25T04:43:09;4.60;99.90
52209;DHT22;38507;53.132;6.394;2023-04-25T04:45:35;4.60;99.90
52209;DHT22;38507;53.132;6.394;2023-04-25T04:48:02;4.60;99.90
52209;DHT22;38507;53.132;6.394;2023-04-25T04:50:28;4.50;99.90
52209;DHT22;38507;53.132;6.394;2023-04-25T04:52:53;4.50;99.90
52209;DHT22;38507;53.132;6.394;2023-04-25T04:55:20;4.50;99.90
52209;DHT22;38507;53.132;6.394;2023-04-25T04:57:46;4.50;99.90
52209;DHT22;38507;53.132;6.394;2023-04-25T05:00:12;4.50;99.90
52209;DHT22;38507;53.132;6.394;2023-04-25T05:02:38;4.50;99.90
52209;DHT22;38507;53.132;6.394;2023-04-25T05:05:05;5.00;99.90
52209;DHT22;38507;53.132;6.394;2023-04-25T05:07:30;4.60;99.90
52209;DHT22;38507;53.132;6.394;2023-04-25T05:09:56;4.60;99.90
52209;DHT22;38507;53.132;6.394;2023-04-25T05:12:21;4.70;99.90
52209;DHT22;38507;53.132;6.394;2023-04-25T05:14:47;4.70;99.90
52209;DHT22;38507;53.132;6.394;2023-04-25T05:17:13;4.70;99.90
52209;DHT22;38507;53.132;6.394;2023-04-25T05:19:39;4.70;99.90
52209;DHT22;38507;53.132;6.394;2023-04-25T05:22:05;4.80;99.90
52209;DHT22;38507;53.132;6.394;2023-04-25T05:24:30;4.80;99.90
52209;DHT22;38507;53.132;6.394;2023-04-25T05:26:56;4.90;99.90
52209;DHT22;38507;53.132;6.394;2023-04-25T05:29:22;5.00;99.90
52209;DHT22;38507;53.132;6.394;2023-04-25T05:31:48;5.00;99.90
52209;DHT22;38507;53.132;6.394;2023-04-25T05:34:13;5.00;99.90
52209;DHT22;38507;53.132;6.394;2023-04-25T05:36:39;5.10;99.90
52209;DHT22;38507;53.132;6.394;2023-04-25T05:39:05;5.10;99.90
52209;DHT22;38507;53.132;6.394;2023-04-25T05:41:31;5.30;99.90
52209;DHT22;38507;53.132;6.394;2023-04-25T05:43:57;5.30;99.90
52209;DHT22;38507;53.132;6.394;2023-04-25T05:46:25;5.20;99.90
52209;DHT22;38507;53.132;6.394;2023-04-25T05:48:51;5.30;99.90
52209;DHT22;38507;53.132;6.394;2023-04-25T05:51:16;5.30;99.90
52209;DHT22;38507;53.132;6.394;2023-04-25T05:53:44;5.40;99.90
52209;DHT22;38507;53.132;6.394;2023-04-25T05:56:09;5.40;99.90
52209;DHT22;38507;53.132;6.394;2023-04-25T05:58:35;5.50;99.90
52209;DHT22;38507;53.132;6.394;2023-04-25T06:01:01;5.50;99.90
52209;DHT22;38507;53.132;6.394;2023-04-25T06:03:28;5.60;99.90
52209;DHT22;38507;53.132;6.394;2023-04-25T06:05:53;5.70;99.90
52209;DHT22;38507;53.132;6.394;2023-04-25T06:08:19;6.20;99.90
52209;DHT22;38507;53.132;6.394;2023-04-25T06:10:45;5.90;99.90
52209;DHT22;38507;53.132;6.394;2023-04-25T06:13:10;6.00;99.90
52209;DHT22;38507;53.132;6.394;2023-04-25T06:15:36;6.10;99.90
52209;DHT22;38507;53.132;6.394;2023-04-25T06:18:02;6.70;99.90
52209;DHT22;38507;53.132;6.394;2023-04-25T06:20:27;6.20;99.90
52209;DHT22;38507;53.132;6.394;2023-04-25T06:22:53;6.20;99.90
52209;DHT22;38507;53.132;6.394;2023-04-25T06:25:19;6.20;99.90
52209;DHT22;38507;53.132;6.394;2023-04-25T06:27:45;6.20;99.90
52209;DHT22;38507;53.132;6.394;2023-04-25T06:30:11;6.30;99.90
52209;DHT22;38507;53.132;6.394;2023-04-25T06:32:38;6.30;99.90
52209;DHT22;38507;53.132;6.394;2023-04-25T06:35:04;6.30;99.90
52209;DHT22;38507;53.132;6.394;2023-04-25T06:37:30;6.40;99.90
52209;DHT22;38507;53.132;6.394;2023-04-25T06:39:56;6.40;99.90
52209;DHT22;38507;53.132;6.394;2023-04-25T06:42:22;6.40;99.90
52209;DHT22;38507;53.132;6.394;2023-04-25T06:44:47;6.40;99.90
52209;DHT22;38507;53.132;6.394;2023-04-25T06:47:13;6.50;99.90
52209;DHT22;38507;53.132;6.394;2023-04-25T06:49:39;6.60;99.90
52209;DHT22;38507;53.132;6.394;2023-04-25T06:52:05;6.70;99.90
52209;DHT22;38507;53.132;6.394;2023-04-25T06:54:30;6.80;99.90
52209;DHT22;38507;53.132;6.394;2023-04-25T06:56:56;6.90;99.90
52209;DHT22;38507;53.132;6.394;2023-04-25T06:59:22;6.90;99.90
52209;DHT22;38507;53.132;6.394;2023-04-25T07:01:48;7.00;99.90
52209;DHT22;38507;53.132;6.394;2023-04-25T07:04:13;7.10;99.90
52209;DHT22;38507;53.132;6.394;2023-04-25T07:06:39;7.10;99.90
52209;DHT22;38507;53.132;6.394;2023-04-25T07:09:11;7.20;99.90
52209;DHT22;38507;53.132;6.394;2023-04-25T07:11:37;7.20;99.90
52209;DHT22;38507;53.132;6.394;2023-04-25T07:14:03;7.20;99.90
52209;DHT22;38507;53.132;6.394;2023-04-25T07:16:29;7.20;99.90
52209;DHT22;38507;53.132;6.394;2023-04-25T07:18:55;7.30;99.90
52209;DHT22;38507;53.132;6.394;2023-04-25T07:21:20;7.40;99.90
52209;DHT22;38507;53.132;6.394;2023-04-25T07:23:46;7.50;99.90
52209;DHT22;38507;53.132;6.394;2023-04-25T07:26:12;7.70;99.90
52209;DHT22;38507;53.132;6.394;2023-04-25T07:28:38;7.80;99.90
52209;DHT22;38507;53.132;6.394;2023-04-25T07:31:03;7.80;99.90
52209;DHT22;38507;53.132;6.394;2023-04-25T07:33:29;7.80;99.90
52209;DHT22;38507;53.132;6.394;2023-04-25T07:35:55;7.70;99.90
52209;DHT22;38507;53.132;6.394;2023-04-25T07:38:21;7.60;99.90
52209;DHT22;38507;53.132;6.394;2023-04-25T07:40:48;7.60;99.90
52209;DHT22;38507;53.132;6.394;2023-04-25T07:43:14;7.80;99.90
52209;DHT22;38507;53.132;6.394;2023-04-25T07:45:46;7.60;99.90
52209;DHT22;38507;53.132;6.394;2023-04-25T07:48:16;7.60;99.90
52209;DHT22;38507;53.132;6.394;2023-04-25T07:50:41;7.60;99.90
52209;DHT22;38507;53.132;6.394;2023-04-25T07:53:07;7.60;99.90
52209;DHT22;38507;53.132;6.394;2023-04-25T07:55:32;7.60;99.90
52209;DHT22;38507;53.132;6.394;2023-04-25T07:57:58;7.60;99.90
52209;DHT22;38507;53.132;6.394;2023-04-25T08:00:24;7.70;99.90
52209;DHT22;38507;53.132;6.394;2023-04-25T08:02:49;8.00;99.90
52209;DHT22;38507;53.132;6.394;2023-04-25T08:05:16;8.00;99.90
52209;DHT22;38507;53.132;6.394;2023-04-25T08:07:42;8.00;99.90
52209;DHT22;38507;53.132;6.394;2023-04-25T08:10:09;8.10;99.90
52209;DHT22;38507;53.132;6.394;2023-04-25T08:12:35;8.10;99.90
52209;DHT22;38507;53.132;6.394;2023-04-25T08:15:00;8.20;99.90
52209;DHT22;38507;53.132;6.394;2023-04-25T08:17:26;8.40;99.90
52209;DHT22;38507;53.132;6.394;2023-04-25T08:19:52;8.40;99.90
52209;DHT22;38507;53.132;6.394;2023-04-25T08:22:17;8.30;99.90
52209;DHT22;38507;53.132;6.394;2023-04-25T08:24:43;8.00;99.90
52209;DHT22;38507;53.132;6.394;2023-04-25T08:27:09;7.80;99.90
52209;DHT22;38507;53.132;6.394;2023-04-25T08:29:37;8.20;99.90
52209;DHT22;38507;53.132;6.394;2023-04-25T08:32:03;7.90;99.90
52209;DHT22;38507;53.132;6.394;2023-04-25T08:34:29;8.20;99.90
52209;DHT22;38507;53.132;6.394;2023-04-25T08:36:55;8.50;99.90
52209;DHT22;38507;53.132;6.394;2023-04-25T08:39:20;8.60;99.90
52209;DHT22;38507;53.132;6.394;2023-04-25T08:41:46;8.30;99.90
52209;DHT22;38507;53.132;6.394;2023-04-25T08:44:13;8.00;99.90
52209;DHT22;38507;53.132;6.394;2023-04-25T08:46:39;7.90;99.90
52209;DHT22;38507;53.132;6.394;2023-04-25T08:49:08;7.90;99.90
52209;DHT22;38507;53.132;6.394;2023-04-25T08:51:46;8.00;99.90
52209;DHT22;38507;53.132;6.394;2023-04-25T08:54:13;8.10;99.90
52209;DHT22;38507;53.132;6.394;2023-04-25T08:56:43;8.40;99.90
52209;DHT22;38507;53.132;6.394;2023-04-25T08:59:10;8.50;99.90
52209;DHT22;38507;53.132;6.394;2023-04-25T09:01:36;8.60;99.90
52209;DHT22;38507;53.132;6.394;2023-04-25T09:04:02;8.70;99.90
52209;DHT22;38507;53.132;6.394;2023-04-25T09:06:29;8.80;99.90
52209;DHT22;38507;53.132;6.394;2023-04-25T09:09:05;9.30;99.90
52209;DHT22;38507;53.132;6.394;2023-04-25T09:11:32;9.20;99.90
52209;DHT22;38507;53.132;6.394;2023-04-25T09:14:30;9.30;99.90
52209;DHT22;38507;53.132;6.394;2023-04-25T09:19:32;9.50;99.90
52209;DHT22;38507;53.132;6.394;2023-04-25T09:22:02;10.00;99.90
52209;DHT22;38507;53.132;6.394;2023-04-25T09:26:57;10.40;99.90
52209;DHT22;38507;53.132;6.394;2023-04-25T09:29:34;10.10;99.90
52209;DHT22;38507;53.132;6.394;2023-04-25T09:32:24;9.80;99.90
52209;DHT22;38507;53.132;6.394;2023-04-25T09:34:55;9.00;99.90
52209;DHT22;38507;53.132;6.394;2023-04-25T09:37:27;8.90;99.90
52209;DHT22;38507;53.132;6.394;2023-04-25T09:39:55;8.70;99.90
52209;DHT22;38507;53.132;6.394;2023-04-25T09:42:26;8.50;99.90
52209;DHT22;38507;53.132;6.394;2023-04-25T09:44:57;9.30;99.90
52209;DHT22;38507;53.132;6.394;2023-04-25T09:47:24;9.00;99.90
52209;DHT22;38507;53.132;6.394;2023-04-25T09:49:51;9.30;99.90
52209;DHT22;38507;53.132;6.394;2023-04-25T09:52:19;10.00;99.90
52209;DHT22;38507;53.132;6.394;2023-04-25T09:54:46;9.90;99.90
52209;DHT22;38507;53.132;6.394;2023-04-25T09:57:21;10.10;99.90
52209;DHT22;38507;53.132;6.394;2023-04-25T09:59:49;10.10;99.90
52209;DHT22;38507;53.132;6.394;2023-04-25T10:02:18;10.20;99.90
52209;DHT22;38507;53.132;6.394;2023-04-25T10:04:48;10.30;99.90
52209;DHT22;38507;53.132;6.394;2023-04-25T10:07:14;10.80;99.90
52209;DHT22;38507;53.132;6.394;2023-04-25T10:09:40;10.80;99.90
52209;DHT22;38507;53.132;6.394;2023-04-25T10:12:07;11.00;99.90
52209;DHT22;38507;53.132;6.394;2023-04-25T10:14:34;11.20;99.90
52209;DHT22;38507;53.132;6.394;2023-04-25T10:17:00;11.10;99.90
52209;DHT22;38507;53.132;6.394;2023-04-25T10:19:27;11.20;99.90
52209;DHT22;38507;53.132;6.394;2023-04-25T10:22:04;11.30;99.90
52209;DHT22;38507;53.132;6.394;2023-04-25T10:24:31;11.30;99.90
52209;DHT22;38507;53.132;6.394;2023-04-25T10:26:57;11.70;99.90
52209;DHT22;38507;53.132;6.394;2023-04-25T10:29:25;11.50;99.90
52209;DHT22;38507;53.132;6.394;2023-04-25T10:31:51;11.50;99.90
52209;DHT22;38507;53.132;6.394;2023-04-25T10:34:17;11.40;99.90
52209;DHT22;38507;53.132;6.394;2023-04-25T10:36:49;11.10;99.90
52209;DHT22;38507;53.132;6.394;2023-04-25T10:39:22;11.00;99.90
52209;DHT22;38507;53.132;6.394;2023-04-25T10:44:18;10.80;99.90
52209;DHT22;38507;53.132;6.394;2023-04-25T10:46:45;10.90;99.90
52209;DHT22;38507;53.132;6.394;2023-04-25T10:57:41;9.80;99.90
52209;DHT22;38507;53.132;6.394;2023-04-25T11:00:12;9.20;99.90
52209;DHT22;38507;53.132;6.394;2023-04-25T11:02:58;9.20;99.90
52209;DHT22;38507;53.132;6.394;2023-04-25T11:11:59;9.90;99.90
52209;DHT22;38507;53.132;6.394;2023-04-25T11:14:26;10.90;99.90
52209;DHT22;38507;53.132;6.394;2023-04-25T11:16:56;10.30;99.90
52209;DHT22;38507;53.132;6.394;2023-04-25T11:19:22;10.10;99.90
52209;DHT22;38507;53.132;6.394;2023-04-25T11:21:48;10.10;99.90
52209;DHT22;38507;53.132;6.394;2023-04-25T11:24:15;10.90;99.90
52209;DHT22;38507;53.132;6.394;2023-04-25T11:26:42;10.80;99.90
52209;DHT22;38507;53.132;6.394;2023-04-25T11:29:08;11.00;99.90
52209;DHT22;38507;53.132;6.394;2023-04-25T11:31:34;10.60;99.90
52209;DHT22;38507;53.132;6.394;2023-04-25T11:34:00;10.70;99.90
52209;DHT22;38507;53.132;6.394;2023-04-25T11:36:26;10.60;99.90
52209;DHT22;38507;53.132;6.394;2023-04-25T11:38:52;11.10;99.90
52209;DHT22;38507;53.132;6.394;2023-04-25T11:41:19;10.40;99.90
52209;DHT22;38507;53.132;6.394;2023-04-25T11:43:45;10.10;99.90
52209;DHT22;38507;53.132;6.394;2023-04-25T11:46:11;10.30;99.90
52209;DHT22;38507;53.132;6.394;2023-04-25T11:48:41;10.20;99.90
52209;DHT22;38507;53.132;6.394;2023-04-25T11:51:07;10.50;99.90
52209;DHT22;38507;53.132;6.394;2023-04-25T11:53:34;10.80;99.90
52209;DHT22;38507;53.132;6.394;2023-04-25T11:55:59;11.00;99.90
52209;DHT22;38507;53.132;6.394;2023-04-25T11:58:26;11.40;99.90
52209;DHT22;38507;53.132;6.394;2023-04-25T12:00:52;11.10;99.90
52209;DHT22;38507;53.132;6.394;2023-04-25T12:03:18;11.30;99.90
52209;DHT22;38507;53.132;6.394;2023-04-25T12:05:45;11.10;99.90
52209;DHT22;38507;53.132;6.394;2023-04-25T12:08:15;11.00;99.90
52209;DHT22;38507;53.132;6.394;2023-04-25T12:10:43;10.70;99.90
52209;DHT22;38507;53.132;6.394;2023-04-25T12:13:21;10.60;99.90
52209;DHT22;38507;53.132;6.394;2023-04-25T12:15:48;10.00;99.90
52209;DHT22;38507;53.132;6.394;2023-04-25T12:18:14;9.90;99.90
52209;DHT22;38507;53.132;6.394;2023-04-25T12:20:41;9.90;99.90
52209;DHT22;38507;53.132;6.394;2023-04-25T12:23:07;10.10;99.90
52209;DHT22;38507;53.132;6.394;2023-04-25T12:25:39;10.20;99.90
52209;DHT22;38507;53.132;6.394;2023-04-25T12:31:00;10.20;99.90
52209;DHT22;38507;53.132;6.394;2023-04-25T12:33:35;10.00;99.90
52209;DHT22;38507;53.132;6.394;2023-04-25T12:36:03;10.00;99.90
52209;DHT22;38507;53.132;6.394;2023-04-25T12:38:40;9.90;99.90
52209;DHT22;38507;53.132;6.394;2023-04-25T12:41:06;10.00;99.90
52209;DHT22;38507;53.132;6.394;2023-04-25T12:43:32;9.80;99.90
52209;DHT22;38507;53.132;6.394;2023-04-25T12:45:58;9.60;99.90
52209;DHT22;38507;53.132;6.394;2023-04-25T12:48:24;10.00;99.90
52209;DHT22;38507;53.132;6.394;2023-04-25T12:50:50;10.20;99.90
52209;DHT22;38507;53.132;6.394;2023-04-25T12:53:18;9.80;99.90
52209;DHT22;38507;53.132;6.394;2023-04-25T12:55:44;10.10;99.90
52209;DHT22;38507;53.132;6.394;2023-04-25T12:58:13;9.90;99.90
52209;DHT22;38507;53.132;6.394;2023-04-25T13:00:39;9.70;99.90
52209;DHT22;38507;53.132;6.394;2023-04-25T13:03:05;9.60;99.90
52209;DHT22;38507;53.132;6.394;2023-04-25T13:05:31;9.30;99.90
52209;DHT22;38507;53.132;6.394;2023-04-25T13:07:56;9.10;99.90
52209;DHT22;38507;53.132;6.394;2023-04-25T13:10:22;9.10;99.90
52209;DHT22;38507;53.132;6.394;2023-04-25T13:12:48;9.30;99.90
52209;DHT22;38507;53.132;6.394;2023-04-25T13:15:14;9.70;99.90
52209;DHT22;38507;53.132;6.394;2023-04-25T13:17:41;10.10;99.90
52209;DHT22;38507;53.132;6.394;2023-04-25T13:20:08;10.70;99.90
52209;DHT22;38507;53.132;6.394;2023-04-25T13:22:44;10.50;99.90
52209;DHT22;38507;53.132;6.394;2023-04-25T13:25:11;10.30;99.90
52209;DHT22;38507;53.132;6.394;2023-04-25T13:27:37;10.40;99.90
52209;DHT22;38507;53.132;6.394;2023-04-25T13:30:04;11.00;99.90
52209;DHT22;38507;53.132;6.394;2023-04-25T13:32:36;10.40;99.90
52209;DHT22;38507;53.132;6.394;2023-04-25T13:35:04;10.30;99.90
52209;DHT22;38507;53.132;6.394;2023-04-25T13:37:30;9.90;99.90
52209;DHT22;38507;53.132;6.394;2023-04-25T13:40:02;9.90;99.90
52209;DHT22;38507;53.132;6.394;2023-04-25T13:42:30;9.00;99.90
52209;DHT22;38507;53.132;6.394;2023-04-25T13:44:56;9.30;99.90
52209;DHT22;38507;53.132;6.394;2023-04-25T13:47:22;8.70;99.90
52209;DHT22;38507;53.132;6.394;2023-04-25T13:49:48;8.70;99.90
52209;DHT22;38507;53.132;6.394;2023-04-25T13:52:14;8.90;99.90
52209;DHT22;38507;53.132;6.394;2023-04-25T13:54:40;8.50;99.90
52209;DHT22;38507;53.132;6.394;2023-04-25T13:57:06;8.40;99.90
52209;DHT22;38507;53.132;6.394;2023-04-25T13:59:32;8.40;99.90
52209;DHT22;38507;53.132;6.394;2023-04-25T14:01:58;8.90;99.90
52209;DHT22;38507;53.132;6.394;2023-04-25T14:04:24;8.50;99.90
52209;DHT22;38507;53.132;6.394;2023-04-25T14:06:50;8.80;99.90
52209;DHT22;38507;53.132;6.394;2023-04-25T14:09:17;9.70;99.90
52209;DHT22;38507;53.132;6.394;2023-04-25T14:11:42;9.30;99.90
52209;DHT22;38507;53.132;6.394;2023-04-25T14:14:08;9.30;99.90
52209;DHT22;38507;53.132;6.394;2023-04-25T14:16:34;9.50;99.90
52209;DHT22;38507;53.132;6.394;2023-04-25T14:19:00;8.90;99.90
52209;DHT22;38507;53.132;6.394;2023-04-25T14:21:29;9.00;99.90
52209;DHT22;38507;53.132;6.394;2023-04-25T14:23:57;9.10;99.90
52209;DHT22;38507;53.132;6.394;2023-04-25T14:26:23;9.10;99.90
52209;DHT22;38507;53.132;6.394;2023-04-25T14:28:50;9.00;99.90
52209;DHT22;38507;53.132;6.394;2023-04-25T14:31:16;9.20;99.90
52209;DHT22;38507;53.132;6.394;2023-04-25T14:33:42;9.40;99.90
52209;DHT22;38507;53.132;6.394;2023-04-25T14:36:09;9.50;99.90
52209;DHT22;38507;53.132;6.394;2023-04-25T14:38:34;9.20;99.90
52209;DHT22;38507;53.132;6.394;2023-04-25T14:41:00;9.10;99.90
52209;DHT22;38507;53.132;6.394;2023-04-25T14:43:26;9.10;99.90
52209;DHT22;38507;53.132;6.394;2023-04-25T14:45:52;9.10;99.90
52209;DHT22;38507;53.132;6.394;2023-04-25T14:48:18;9.50;99.90
52209;DHT22;38507;53.132;6.394;2023-04-25T14:50:45;10.20;99.90
52209;DHT22;38507;53.132;6.394;2023-04-25T14:53:11;10.20;99.90
52209;DHT22;38507;53.132;6.394;2023-04-25T14:55:37;10.30;99.90
52209;DHT22;38507;53.132;6.394;2023-04-25T14:58:03;10.00;99.90
52209;DHT22;38507;53.132;6.394;2023-04-25T15:00:29;9.90;99.90
52209;DHT22;38507;53.132;6.394;2023-04-25T15:02:56;9.70;99.90
52209;DHT22;38507;53.132;6.394;2023-04-25T15:05:22;9.20;99.90
52209;DHT22;38507;53.132;6.394;2023-04-25T15:07:47;9.80;99.90
52209;DHT22;38507;53.132;6.394;2023-04-25T15:10:13;10.00;99.90
52209;DHT22;38507;53.132;6.394;2023-04-25T15:12:42;10.60;99.90
52209;DHT22;38507;53.132;6.394;2023-04-25T15:15:08;10.50;99.90
52209;DHT22;38507;53.132;6.394;2023-04-25T15:17:41;10.30;99.90
52209;DHT22;38507;53.132;6.394;2023-04-25T15:20:08;10.50;99.90
52209;DHT22;38507;53.132;6.394;2023-04-25T15:22:38;10.80;99.90
52209;DHT22;38507;53.132;6.394;2023-04-25T15:25:05;11.30;99.90
52209;DHT22;38507;53.132;6.394;2023-04-25T15:27:33;10.50;99.90
52209;DHT22;38507;53.132;6.394;2023-04-25T15:30:04;10.30;99.90
52209;DHT22;38507;53.132;6.394;2023-04-25T15:32:31;10.10;99.90
52209;DHT22;38507;53.132;6.394;2023-04-25T15:34:56;10.50;99.90
52209;DHT22;38507;53.132;6.394;2023-04-25T15:37:22;10.60;99.90
52209;DHT22;38507;53.132;6.394;2023-04-25T15:40:01;10.40;99.90
52209;DHT22;38507;53.132;6.394;2023-04-25T15:42:27;9.90;99.90
52209;DHT22;38507;53.132;6.394;2023-04-25T15:44:53;9.80;99.90
52209;DHT22;38507;53.132;6.394;2023-04-25T15:47:18;10.20;99.90
52209;DHT22;38507;53.132;6.394;2023-04-25T15:49:44;9.70;99.90
52209;DHT22;38507;53.132;6.394;2023-04-25T15:52:10;9.80;99.90
52209;DHT22;38507;53.132;6.394;2023-04-25T15:54:35;9.70;99.90
52209;DHT22;38507;53.132;6.394;2023-04-25T15:57:01;9.70;99.90
52209;DHT22;38507;53.132;6.394;2023-04-25T15:59:27;10.00;99.90
52209;DHT22;38507;53.132;6.394;2023-04-25T16:01:53;10.20;99.90
52209;DHT22;38507;53.132;6.394;2023-04-25T16:04:18;10.20;99.90